createdAt,value
2018-04-27T00:00:48.182Z,6.96
2018-04-27T00:03:18.971Z,6.93
2018-04-27T00:05:49.747Z,6.89
2018-04-27T00:08:20.506Z,6.97
2018-04-27T00:10:51.300Z,7.04
2018-04-27T00:13:22.088Z,7.27
2018-04-27T00:15:52.869Z,7.30
2018-04-27T00:18:23.667Z,7.27
2018-04-27T00:20:54.471Z,7.36
2018-04-27T00:23:25.235Z,7.44
2018-04-27T00:25:56.027Z,7.40
2018-04-27T00:28:26.819Z,7.27
2018-04-27T00:30:57.604Z,7.04
2018-04-27T00:33:28.391Z,6.86
2018-04-27T00:35:59.181Z,6.70
2018-04-27T00:38:31.936Z,6.71
2018-04-27T00:41:02.741Z,6.64
2018-04-27T00:43:33.513Z,6.62
2018-04-27T00:46:04.311Z,6.56
2018-04-27T00:48:35.160Z,6.57
2018-04-27T00:51:05.965Z,6.63
2018-04-27T00:53:36.761Z,6.67
2018-04-27T00:56:07.558Z,6.86
2018-04-27T00:58:38.344Z,6.85
2018-04-27T01:01:09.138Z,6.71
2018-04-27T01:03:39.935Z,6.67
2018-04-27T01:06:10.723Z,6.66
2018-04-27T01:08:41.500Z,6.62
2018-04-27T01:11:12.291Z,6.65
2018-04-27T01:13:43.124Z,6.66
2018-04-27T01:16:13.923Z,6.63
2018-04-27T01:18:44.755Z,6.51
2018-04-27T01:21:15.543Z,6.43
2018-04-27T01:23:46.325Z,6.34
2018-04-27T01:26:17.180Z,6.30
2018-04-27T01:28:47.962Z,6.27
2018-04-27T01:31:18.783Z,6.28
2018-04-27T01:33:49.585Z,6.32
2018-04-27T01:36:20.368Z,6.40
2018-04-27T01:38:51.133Z,6.44
2018-04-27T01:41:21.964Z,6.47
2018-04-27T01:43:52.744Z,6.64
2018-04-27T01:46:23.552Z,6.73
2018-04-27T01:48:54.327Z,6.85
2018-04-27T01:51:25.107Z,6.85
2018-04-27T01:53:55.920Z,6.83
2018-04-27T01:56:26.743Z,6.73
2018-04-27T01:58:57.539Z,6.72
2018-04-27T02:01:28.357Z,6.69
2018-04-27T02:03:59.152Z,6.55
2018-04-27T02:06:29.958Z,6.47
2018-04-27T02:09:00.770Z,6.43
2018-04-27T02:11:31.600Z,6.44
2018-04-27T02:14:02.379Z,6.47
2018-04-27T02:16:33.168Z,6.53
2018-04-27T02:19:03.960Z,6.53
2018-04-27T02:21:34.750Z,6.46
2018-04-27T02:24:05.516Z,6.45
2018-04-27T02:26:36.305Z,6.33
2018-04-27T02:29:07.077Z,6.33
2018-04-27T02:31:37.879Z,6.34
2018-04-27T02:34:08.655Z,6.26
2018-04-27T02:36:39.457Z,6.18
2018-04-27T02:39:10.241Z,6.14
2018-04-27T02:41:41.060Z,6.06
2018-04-27T02:44:11.839Z,6.02
2018-04-27T02:46:42.619Z,6.02
2018-04-27T02:49:13.391Z,5.91
2018-04-27T02:51:44.180Z,5.90
2018-04-27T02:54:14.956Z,5.75
2018-04-27T02:56:45.769Z,5.66
2018-04-27T02:59:16.563Z,5.54
2018-04-27T03:01:47.360Z,5.48
2018-04-27T03:04:18.195Z,5.43
2018-04-27T03:06:48.925Z,5.42
2018-04-27T03:09:19.725Z,5.37
2018-04-27T03:11:50.520Z,5.28
2018-04-27T03:14:21.295Z,5.19
2018-04-27T03:16:52.064Z,5.10
2018-04-27T03:19:22.836Z,5.00
2018-04-27T03:21:53.619Z,4.81
2018-04-27T03:24:24.376Z,4.61
2018-04-27T03:26:55.167Z,4.58
2018-04-27T03:29:25.938Z,4.56
2018-04-27T03:31:56.708Z,4.68
2018-04-27T03:34:27.464Z,4.71
2018-04-27T03:36:58.251Z,4.84
2018-04-27T03:39:29.039Z,5.00
2018-04-27T03:41:59.851Z,5.10
2018-04-27T03:44:30.660Z,5.21
2018-04-27T03:47:01.468Z,5.31
2018-04-27T03:49:32.244Z,5.40
2018-04-27T03:52:03.076Z,5.48
2018-04-27T03:54:33.851Z,5.62
2018-04-27T03:57:04.632Z,5.65
2018-04-27T03:59:47.664Z,5.70
2018-04-27T04:02:30.789Z,5.70
2018-04-27T04:05:13.732Z,5.74
2018-04-27T04:07:44.540Z,5.64
2018-04-27T04:10:15.305Z,5.50
2018-04-27T04:12:46.109Z,5.52
2018-04-27T04:15:16.886Z,5.46
2018-04-27T04:17:47.701Z,5.42
2018-04-27T04:20:18.475Z,5.44
2018-04-27T04:22:49.263Z,5.48
2018-04-27T04:25:20.041Z,5.56
2018-04-27T04:27:50.850Z,5.72
2018-04-27T04:30:21.607Z,5.83
2018-04-27T04:32:52.425Z,5.89
2018-04-27T04:35:23.281Z,5.96
2018-04-27T04:37:54.074Z,5.96
2018-04-27T04:40:24.836Z,6.06
2018-04-27T04:42:55.634Z,6.13
2018-04-27T04:45:26.401Z,6.19
2018-04-27T04:47:57.183Z,6.25
2018-04-27T04:50:27.995Z,6.26
2018-04-27T04:52:58.780Z,6.28
2018-04-27T04:55:29.547Z,6.29
2018-04-27T04:58:00.358Z,6.41
2018-04-27T05:00:31.141Z,6.49
2018-04-27T05:03:01.983Z,6.61
2018-04-27T05:05:32.719Z,6.77
2018-04-27T05:08:03.558Z,6.96
2018-04-27T05:10:34.432Z,7.24
2018-04-27T05:13:05.172Z,7.36
2018-04-27T05:15:35.948Z,7.37
2018-04-27T05:18:19.233Z,7.59
2018-04-27T05:20:50.051Z,7.59
2018-04-27T05:23:20.855Z,7.80
2018-04-27T05:25:51.639Z,7.87
2018-04-27T05:28:22.413Z,8.17
2018-04-27T05:30:53.215Z,8.47
2018-04-27T05:33:24.014Z,8.88
2018-04-27T05:35:54.791Z,9.28
2018-04-27T05:38:25.588Z,9.68
2018-04-27T05:40:56.380Z,9.97
2018-04-27T05:43:27.163Z,10.78
2018-04-27T05:45:57.985Z,10.93
2018-04-27T05:48:28.874Z,10.42
2018-04-27T05:51:00.531Z,10.17
2018-04-27T05:53:31.363Z,10.15
2018-04-27T05:56:02.282Z,10.34
2018-04-27T05:58:33.155Z,10.59
2018-04-27T06:01:03.954Z,11.98
2018-04-27T06:03:47.219Z,12.46
2018-04-27T06:06:18.003Z,12.92
2018-04-27T06:08:48.785Z,13.06
2018-04-27T06:11:19.571Z,12.82
2018-04-27T06:13:50.349Z,12.95
2018-04-27T06:16:21.127Z,12.82
2018-04-27T06:18:51.942Z,12.50
2018-04-27T06:21:22.712Z,13.05
2018-04-27T06:23:53.567Z,13.38
2018-04-27T06:26:24.357Z,13.24
2018-04-27T06:28:55.167Z,13.30
2018-04-27T06:31:25.941Z,14.13
2018-04-27T06:33:56.732Z,14.62
2018-04-27T06:36:27.536Z,16.23
2018-04-27T06:38:58.316Z,17.04
2018-04-27T06:41:29.111Z,17.00
2018-04-27T06:43:59.943Z,17.52
2018-04-27T06:46:30.721Z,17.94
2018-04-27T06:49:01.539Z,19.14
2018-04-27T06:51:32.376Z,19.26
2018-04-27T06:54:03.207Z,19.22
2018-04-27T06:56:33.996Z,18.86
2018-04-27T06:59:04.798Z,18.00
2018-04-27T07:01:35.605Z,18.19
2018-04-27T07:04:06.403Z,19.43
2018-04-27T07:06:37.259Z,19.16
2018-04-27T07:09:08.063Z,18.24
2018-04-27T07:11:38.934Z,17.95
2018-04-27T07:14:09.696Z,17.82
2018-04-27T07:16:40.484Z,17.22
2018-04-27T07:19:11.297Z,18.23
2018-04-27T07:21:42.088Z,18.44
2018-04-27T07:24:12.928Z,18.98
2018-04-27T07:26:43.768Z,20.48
2018-04-27T07:29:14.595Z,19.25
2018-04-27T07:31:45.368Z,20.24
2018-04-27T07:34:16.243Z,20.86
2018-04-27T07:36:46.977Z,21.11
2018-04-27T07:39:17.813Z,20.35
2018-04-27T07:41:48.609Z,20.30
2018-04-27T07:44:19.444Z,20.79
2018-04-27T07:46:50.309Z,19.79
2018-04-27T07:49:21.108Z,20.84
2018-04-27T07:51:51.896Z,19.98
2018-04-27T07:54:22.738Z,20.60
2018-04-27T07:56:53.601Z,20.87
2018-04-27T07:59:24.447Z,21.93
2018-04-27T08:01:55.256Z,20.76
2018-04-27T08:04:26.100Z,20.59
2018-04-27T08:06:56.928Z,20.22
2018-04-27T08:09:27.768Z,20.62
2018-04-27T08:11:58.643Z,21.28
2018-04-27T08:14:29.491Z,20.38
2018-04-27T08:17:00.407Z,20.04
2018-04-27T08:19:31.311Z,20.70
2018-04-27T08:22:02.172Z,21.35
2018-04-27T08:24:33.126Z,22.52
2018-04-27T08:27:04.912Z,20.04
2018-04-27T08:29:35.724Z,20.79
2018-04-27T08:32:06.633Z,20.08
2018-04-27T08:34:37.383Z,21.20
2018-04-27T08:37:08.219Z,19.42
2018-04-27T08:39:39.077Z,20.63
2018-04-27T08:42:09.882Z,19.88
2018-04-27T08:44:40.715Z,20.20
2018-04-27T08:47:11.504Z,21.45
2018-04-27T08:49:42.353Z,21.86
2018-04-27T08:52:13.160Z,22.12
2018-04-27T08:54:44.024Z,20.87
2018-04-27T08:57:14.886Z,19.30
2018-04-27T08:59:45.724Z,19.27
2018-04-27T09:02:16.687Z,19.14
2018-04-27T09:04:47.539Z,19.75
2018-04-27T09:07:18.339Z,19.87
2018-04-27T09:09:49.402Z,20.55
2018-04-27T09:12:20.310Z,20.48
2018-04-27T09:14:51.146Z,20.08
2018-04-27T09:17:21.997Z,19.35
2018-04-27T09:19:53.165Z,20.34
2018-04-27T09:22:24.279Z,20.52
2018-04-27T09:24:55.089Z,20.40
2018-04-27T09:27:25.915Z,20.92
2018-04-27T09:29:56.708Z,20.59
2018-04-27T09:32:27.491Z,21.07
2018-04-27T09:34:58.295Z,20.82
2018-04-27T09:37:29.110Z,21.00
2018-04-27T09:40:00.328Z,21.14
2018-04-27T09:42:32.875Z,21.69
2018-04-27T09:45:03.850Z,20.67
2018-04-27T09:47:34.679Z,21.53
2018-04-27T09:50:05.502Z,20.54
2018-04-27T09:52:36.308Z,21.25
2018-04-27T09:55:07.089Z,21.15
2018-04-27T09:57:37.909Z,21.19
2018-04-27T10:00:08.744Z,20.82
2018-04-27T10:02:39.559Z,21.34
2018-04-27T10:05:10.380Z,20.36
2018-04-27T10:07:41.164Z,20.54
2018-04-27T10:10:11.971Z,19.93
2018-04-27T10:12:42.751Z,19.98
2018-04-27T10:15:13.542Z,19.76
2018-04-27T10:17:44.359Z,20.18
2018-04-27T10:20:15.154Z,19.54
2018-04-27T10:22:45.988Z,19.95
2018-04-27T10:25:16.919Z,20.63
2018-04-27T10:27:47.724Z,21.51
2018-04-27T10:30:18.586Z,21.76
2018-04-27T10:32:49.420Z,22.08
2018-04-27T10:35:20.237Z,21.63
2018-04-27T10:37:51.031Z,21.70
2018-04-27T10:40:21.903Z,21.79
2018-04-27T10:42:52.785Z,21.78
2018-04-27T10:45:23.602Z,21.90
2018-04-27T10:47:54.486Z,21.97
2018-04-27T10:50:25.340Z,22.56
2018-04-27T10:52:56.153Z,22.49
2018-04-27T10:55:27.078Z,22.62
2018-04-27T10:57:57.890Z,22.29
2018-04-27T11:00:28.776Z,21.80
2018-04-27T11:02:59.570Z,22.05
2018-04-27T11:05:30.456Z,22.09
2018-04-27T11:08:01.295Z,21.79
2018-04-27T11:10:32.132Z,21.79
2018-04-27T11:13:02.924Z,21.78
2018-04-27T11:15:33.735Z,21.93
2018-04-27T11:18:04.540Z,22.02
2018-04-27T11:20:35.427Z,22.04
2018-04-27T11:23:06.151Z,22.54
2018-04-27T11:25:36.972Z,22.22
2018-04-27T11:28:07.760Z,22.39
2018-04-27T11:30:38.563Z,22.25
2018-04-27T11:33:09.433Z,21.26
2018-04-27T11:35:40.275Z,21.72
2018-04-27T11:38:11.141Z,21.65
2018-04-27T11:40:41.989Z,21.71
2018-04-27T11:43:12.799Z,22.06
2018-04-27T11:45:43.637Z,22.85
2018-04-27T11:48:14.399Z,21.43
2018-04-27T11:50:45.250Z,21.88
2018-04-27T11:53:16.039Z,22.89
2018-04-27T11:55:46.869Z,23.34
2018-04-27T11:58:17.655Z,22.95
2018-04-27T12:00:48.593Z,22.74
2018-04-27T12:03:19.333Z,23.03
2018-04-27T12:05:50.169Z,22.72
2018-04-27T12:08:21.024Z,22.58
2018-04-27T12:10:51.826Z,21.83
2018-04-27T12:13:22.867Z,22.30
2018-04-27T12:15:53.717Z,23.06
2018-04-27T12:18:24.553Z,22.96
2018-04-27T12:20:55.425Z,22.49
2018-04-27T12:23:26.207Z,23.10
2018-04-27T12:25:56.992Z,23.55
2018-04-27T12:28:27.790Z,23.69
2018-04-27T12:30:58.667Z,23.19
2018-04-27T12:33:29.420Z,25.06
2018-04-27T12:36:00.261Z,25.25
2018-04-27T12:38:31.095Z,25.83
2018-04-27T12:41:02.000Z,25.54
2018-04-27T12:43:32.783Z,26.52
2018-04-27T12:46:03.657Z,27.17
2018-04-27T12:48:34.422Z,27.04
2018-04-27T12:51:05.247Z,27.29
2018-04-27T12:53:36.047Z,28.40
2018-04-27T12:56:06.887Z,27.87
2018-04-27T12:58:37.661Z,27.47
2018-04-27T13:01:08.467Z,26.79
2018-04-27T13:03:39.270Z,27.57
2018-04-27T13:06:10.076Z,26.43
2018-04-27T13:08:40.869Z,26.69
2018-04-27T13:11:11.724Z,27.23
2018-04-27T13:13:42.527Z,26.48
2018-04-27T13:16:13.336Z,26.98
2018-04-27T13:18:44.115Z,26.55
2018-04-27T13:21:14.991Z,25.66
2018-04-27T13:23:45.766Z,25.92
2018-04-27T13:26:16.602Z,27.14
2018-04-27T13:28:47.478Z,26.65
2018-04-27T13:31:18.308Z,28.17
2018-04-27T13:33:49.181Z,27.07
2018-04-27T13:36:20.019Z,27.13
2018-04-27T13:38:50.875Z,26.98
2018-04-27T13:41:21.712Z,26.77
2018-04-27T13:43:52.485Z,26.20
2018-04-27T13:46:23.271Z,28.29
2018-04-27T13:48:54.057Z,28.33
2018-04-27T13:51:24.884Z,25.38
2018-04-27T13:53:55.707Z,26.19
2018-04-27T13:56:26.528Z,26.39
2018-04-27T13:58:57.321Z,26.51
2018-04-27T14:01:28.267Z,27.20
2018-04-27T14:03:59.116Z,26.65
2018-04-27T14:06:29.911Z,26.86
2018-04-27T14:09:00.686Z,26.61
2018-04-27T14:11:31.492Z,26.48
2018-04-27T14:14:02.314Z,26.46
2018-04-27T14:16:33.096Z,27.07
2018-04-27T14:19:04.785Z,27.40
2018-04-27T14:21:35.594Z,26.99
2018-04-27T14:24:06.396Z,26.59
2018-04-27T14:26:37.191Z,27.27
2018-04-27T14:29:07.987Z,27.47
2018-04-27T14:31:38.800Z,28.00
2018-04-27T14:34:09.653Z,28.09
2018-04-27T14:36:40.454Z,28.15
2018-04-27T14:39:11.223Z,27.95
2018-04-27T14:41:42.039Z,28.33
2018-04-27T14:44:12.819Z,28.86
2018-04-27T14:46:43.635Z,29.84
2018-04-27T14:49:14.430Z,29.50
2018-04-27T14:51:45.287Z,28.34
2018-04-27T14:54:16.092Z,27.88
2018-04-27T14:56:46.908Z,28.99
2018-04-27T14:59:17.725Z,29.80
2018-04-27T15:01:48.561Z,28.56
2018-04-27T15:04:19.335Z,28.18
2018-04-27T15:06:50.244Z,27.34
2018-04-27T15:09:21.044Z,26.75
2018-04-27T15:11:51.869Z,27.34
2018-04-27T15:14:22.691Z,26.71
2018-04-27T15:16:53.512Z,28.39
2018-04-27T15:19:24.300Z,27.06
2018-04-27T15:21:55.209Z,25.12
2018-04-27T15:24:26.032Z,25.78
2018-04-27T15:26:56.865Z,26.88
2018-04-27T15:29:27.653Z,27.66
2018-04-27T15:31:58.463Z,28.27
2018-04-27T15:34:29.266Z,28.29
2018-04-27T15:37:00.134Z,27.29
2018-04-27T15:39:30.936Z,26.52
2018-04-27T15:42:01.753Z,26.32
2018-04-27T15:44:32.567Z,26.46
2018-04-27T15:50:02.225Z,24.41
2018-04-27T15:52:33.025Z,25.03
2018-04-27T15:55:03.832Z,24.75
2018-04-27T15:57:34.654Z,25.21
2018-04-27T16:00:05.515Z,24.61
2018-04-27T16:02:36.319Z,24.87
2018-04-27T16:05:07.131Z,24.57
2018-04-27T16:07:37.983Z,24.37
2018-04-27T16:10:08.809Z,23.78
2018-04-27T16:12:40.258Z,23.51
2018-04-27T16:15:11.067Z,23.70
2018-04-27T16:17:41.969Z,23.43
2018-04-27T16:20:12.776Z,23.30
2018-04-27T16:22:43.631Z,23.30
2018-04-27T16:25:14.429Z,23.05
2018-04-27T16:27:45.268Z,23.16
2018-04-27T16:30:16.061Z,22.91
2018-04-27T16:32:46.904Z,22.88
2018-04-27T16:35:17.784Z,22.48
2018-04-27T16:37:48.617Z,22.16
2018-04-27T16:40:19.428Z,22.24
2018-04-27T16:42:50.251Z,22.16
2018-04-27T16:45:21.080Z,22.08
2018-04-27T16:47:51.869Z,22.12
2018-04-27T16:50:22.689Z,22.12
2018-04-27T16:52:53.548Z,22.08
2018-04-27T16:55:24.320Z,21.91
2018-04-27T16:57:55.135Z,21.66
2018-04-27T17:00:25.920Z,21.55
2018-04-27T17:02:56.831Z,21.48
2018-04-27T17:05:27.711Z,21.29
2018-04-27T17:07:58.679Z,21.18
2018-04-27T17:10:29.500Z,21.16
2018-04-27T17:13:00.375Z,21.08
2018-04-27T17:15:31.188Z,20.93
2018-04-27T17:18:02.046Z,20.84
2018-04-27T17:20:32.939Z,20.83
2018-04-27T17:23:03.795Z,20.69
2018-04-27T17:25:34.601Z,20.60
2018-04-27T17:28:05.444Z,20.54
2018-04-27T17:30:36.236Z,20.46
2018-04-27T17:33:07.043Z,20.43
2018-04-27T17:35:37.858Z,20.42
2018-04-27T17:38:08.663Z,20.38
2018-04-27T17:40:39.491Z,20.22
2018-04-27T17:43:10.291Z,20.07
2018-04-27T17:45:41.094Z,20.01
2018-04-27T17:48:11.946Z,19.79
2018-04-27T17:50:42.704Z,19.69
2018-04-27T17:53:13.600Z,19.52
2018-04-27T17:55:44.432Z,19.35
2018-04-27T17:58:15.265Z,19.14
2018-04-27T18:00:46.073Z,19.02
2018-04-27T18:03:16.930Z,18.86
2018-04-27T18:05:47.758Z,18.71
2018-04-27T18:08:18.599Z,18.70
2018-04-27T18:10:49.379Z,18.71
2018-04-27T18:13:20.244Z,18.55
2018-04-27T18:15:51.764Z,18.47
2018-04-27T18:18:22.603Z,18.37
2018-04-27T18:20:53.428Z,18.26
2018-04-27T18:23:24.974Z,18.11
2018-04-27T18:25:55.788Z,17.94
2018-04-27T18:28:28.616Z,17.81
2018-04-27T18:30:59.411Z,17.57
2018-04-27T18:33:30.211Z,17.28
2018-04-27T18:36:01.093Z,17.06
2018-04-27T18:38:31.894Z,17.21
2018-04-27T18:41:03.683Z,17.13
2018-04-27T18:43:34.504Z,16.94
2018-04-27T18:46:05.283Z,16.79
2018-04-27T18:48:36.120Z,16.69
2018-04-27T18:51:07.763Z,16.71
2018-04-27T18:53:38.573Z,16.59
2018-04-27T18:56:09.392Z,16.48
2018-04-27T18:58:40.226Z,16.35
2018-04-27T19:01:14.899Z,16.34
2018-04-27T19:03:53.645Z,16.35
2018-04-27T19:06:24.446Z,16.24
2018-04-27T19:08:55.357Z,16.08
2018-04-27T19:11:26.100Z,16.01
2018-04-27T19:13:56.907Z,16.07
2018-04-27T19:16:27.749Z,16.09
2018-04-27T19:18:58.581Z,16.07
2018-04-27T19:21:29.356Z,15.86
2018-04-27T19:24:00.175Z,15.65
2018-04-27T19:26:31.101Z,15.46
2018-04-27T19:29:01.894Z,15.31
2018-04-27T19:31:32.733Z,15.28
2018-04-27T19:34:03.591Z,15.28
2018-04-27T19:36:34.380Z,15.20
2018-04-27T19:39:05.200Z,15.13
2018-04-27T19:41:36.004Z,15.05
2018-04-27T19:44:06.837Z,14.97
2018-04-27T19:46:37.664Z,14.93
2018-04-27T19:49:08.484Z,14.91
2018-04-27T19:51:39.284Z,14.77
2018-04-27T19:54:10.152Z,14.58
2018-04-27T19:56:40.984Z,14.48
2018-04-27T19:59:11.820Z,14.59
2018-04-27T20:01:42.646Z,14.50
2018-04-27T20:04:13.541Z,14.53
2018-04-27T20:06:44.332Z,14.46
2018-04-27T20:09:15.152Z,14.58
2018-04-27T20:11:46.151Z,14.62
2018-04-27T20:14:26.975Z,14.61
2018-04-27T20:17:03.073Z,14.66
2018-04-27T20:19:33.840Z,14.83
2018-04-27T20:22:08.629Z,14.85
2018-04-27T20:24:39.560Z,14.84
2018-04-27T20:27:11.465Z,14.52
2018-04-27T20:29:42.321Z,14.70
2018-04-27T20:32:13.111Z,14.62
2018-04-27T20:34:43.971Z,14.50
2018-04-27T20:37:14.799Z,14.40
2018-04-27T20:39:45.575Z,14.38
2018-04-27T20:42:16.419Z,14.33
2018-04-27T20:44:48.217Z,14.28
2018-04-27T20:47:19.010Z,14.27
2018-04-27T20:49:49.921Z,14.24
2018-04-27T20:52:26.634Z,14.26
2018-04-27T20:54:57.576Z,14.23
2018-04-27T20:57:28.525Z,14.15
2018-04-27T21:00:00.879Z,14.08
2018-04-27T21:02:33.109Z,14.10
2018-04-27T21:05:04.879Z,14.16
2018-04-27T21:07:35.723Z,14.26
2018-04-27T21:10:06.524Z,14.37
2018-04-27T21:12:37.311Z,14.40
2018-04-27T21:15:08.123Z,14.34
2018-04-27T21:17:44.887Z,14.30
2018-04-27T21:20:15.736Z,14.21
2018-04-27T21:22:46.588Z,14.24
2018-04-27T21:25:25.168Z,14.26
2018-04-27T21:27:56.152Z,14.22
2018-04-27T21:30:27.016Z,14.21
2018-04-27T21:32:57.806Z,14.15
2018-04-27T21:35:31.551Z,13.94
2018-04-27T21:38:04.333Z,13.73
2018-04-27T21:40:35.156Z,13.60
2018-04-27T21:43:05.980Z,13.62
2018-04-27T21:45:36.781Z,13.46
2018-04-27T21:48:07.603Z,13.35
2018-04-27T21:50:38.421Z,13.36
2018-04-27T21:53:09.229Z,13.44
2018-04-27T21:55:40.243Z,13.49
2018-04-27T21:58:11.049Z,13.51
2018-04-27T22:00:42.684Z,13.38
2018-04-27T22:03:13.479Z,13.23
2018-04-27T22:08:49.008Z,13.16
2018-04-27T22:11:33.732Z,12.92
2018-04-27T22:14:04.596Z,12.84
2018-04-27T22:16:35.399Z,12.77
2018-04-27T22:19:06.292Z,12.70
2018-04-27T22:21:37.103Z,12.76
2018-04-27T22:24:07.892Z,12.76
2018-04-27T22:26:39.756Z,12.83
2018-04-27T22:29:16.676Z,12.77
2018-04-27T22:31:47.566Z,12.59
2018-04-27T22:34:23.212Z,12.50
2018-04-27T22:36:54.060Z,12.52
2018-04-27T22:39:35.780Z,12.49
2018-04-27T22:42:06.615Z,12.43
2018-04-27T22:47:35.600Z,12.68
2018-04-27T22:50:08.391Z,12.62
2018-04-27T22:52:39.223Z,12.57
2018-04-27T22:55:12.007Z,12.61
2018-04-27T23:00:51.404Z,12.62
2018-04-27T23:03:22.248Z,12.60
2018-04-27T23:05:54.031Z,12.50
2018-04-27T23:08:24.901Z,12.58
2018-04-27T23:11:06.052Z,12.58
2018-04-27T23:13:47.791Z,12.50
2018-04-27T23:16:18.609Z,12.62
2018-04-27T23:18:49.477Z,12.58
2018-04-27T23:21:23.288Z,12.58
2018-04-27T23:23:54.147Z,12.68
2018-04-27T23:26:25.014Z,12.66
2018-04-27T23:28:55.864Z,12.72
2018-04-27T23:31:26.671Z,12.60
2018-04-27T23:33:57.547Z,12.68
2018-04-27T23:36:28.370Z,12.72
2018-04-27T23:38:59.207Z,12.80
2018-04-27T23:41:30.029Z,12.82
2018-04-27T23:44:00.876Z,12.79
2018-04-27T23:46:31.708Z,12.72
2018-04-27T23:49:02.550Z,12.62
2018-04-27T23:51:33.359Z,12.53
2018-04-27T23:54:05.852Z,12.48
2018-04-27T23:56:36.684Z,12.36
2018-04-27T23:59:07.511Z,12.22
